Time;durP1;ratioP1;P1;durP2;ratioP2;P2;SDS_P1;SDS_P2;PMS_P1;PMS_P2;Temp;Humidity;BMP_temperature;BMP_pressure;BME280_temperature;BME280_humidity;BME280_pressure;Samples;Min_cycle;Max_cycle;Signal;HPM_P1;HPM_P2
2022/06/14 00:01:00;;;;;;;9.27;3.53;;;14.40;99.90;;;;;;5032261;28;20360;-78
2022/06/14 00:03:37;;;;;;;6.40;3.70;;;14.40;99.90;;;;;;5034955;28;20026;-76
2022/06/14 00:06:05;;;;;;;7.20;3.40;;;14.30;99.90;;;;;;5034431;28;20037;-77
2022/06/14 00:08:31;;;;;;;7.07;3.67;;;14.30;99.90;;;;;;5029055;28;20038;-77
2022/06/14 00:10:58;;;;;;;8.18;3.90;;;14.30;99.90;;;;;;5031581;28;20084;-77
2022/06/14 00:13:25;;;;;;;8.88;3.90;;;14.30;99.90;;;;;;5034002;28;20045;-76
2022/06/14 00:15:51;;;;;;;7.03;3.40;;;14.20;99.90;;;;;;5032731;28;20045;-76
2022/06/14 00:18:17;;;;;;;9.30;3.40;;;14.20;99.90;;;;;;5034252;28;20103;-78
2022/06/14 00:20:45;;;;;;;7.00;3.65;;;14.20;99.90;;;;;;5033966;28;20021;-74
2022/06/14 00:23:10;;;;;;;7.57;3.70;;;14.20;99.90;;;;;;5037127;28;20076;-76
2022/06/14 00:25:42;;;;;;;17.33;4.88;;;14.10;99.90;;;;;;5033239;28;20491;-77
2022/06/14 00:28:11;;;;;;;7.38;4.10;;;14.10;99.90;;;;;;5031968;28;20044;-76
2022/06/14 00:30:39;;;;;;;6.93;3.30;;;14.10;99.90;;;;;;5036445;28;20079;-75
2022/06/14 00:33:05;;;;;;;9.35;3.65;;;14.10;99.90;;;;;;5034935;28;20033;-78
2022/06/14 00:35:31;;;;;;;9.63;4.28;;;14.00;99.90;;;;;;5033655;28;20083;-77
2022/06/14 00:37:57;;;;;;;10.65;4.57;;;14.00;99.90;;;;;;5032455;28;20065;-74
2022/06/14 00:40:26;;;;;;;8.32;4.30;;;14.00;99.90;;;;;;5033708;28;20045;-76
2022/06/14 00:42:52;;;;;;;9.33;3.83;;;14.00;99.90;;;;;;5027903;28;20048;-74
2022/06/14 00:45:18;;;;;;;10.45;4.20;;;13.90;99.90;;;;;;5032894;28;20045;-76
2022/06/14 00:47:46;;;;;;;10.00;3.60;;;13.90;99.90;;;;;;5033222;28;20022;-74
2022/06/14 00:50:35;;;;;;;6.72;3.15;;;13.90;99.90;;;;;;5033172;28;20521;-75
2022/06/14 00:53:09;;;;;;;6.25;3.50;;;13.90;99.90;;;;;;5019538;28;20683;-76
2022/06/14 00:55:44;;;;;;;12.77;5.13;;;13.80;99.90;;;;;;5033160;28;20036;-76
2022/06/14 00:58:20;;;;;;;8.05;3.72;;;13.80;99.90;;;;;;5033882;28;20386;-75
2022/06/14 01:00:59;;;;;;;7.57;3.42;;;13.80;99.90;;;;;;5028780;28;20104;-76
2022/06/14 01:03:29;;;;;;;7.25;3.88;;;13.70;99.90;;;;;;5025910;28;20017;-76
2022/06/14 01:06:24;;;;;;;8.27;3.97;;;13.70;99.90;;;;;;5032144;28;20070;-76
2022/06/14 01:08:57;;;;;;;8.60;3.83;;;13.70;99.90;;;;;;5032443;28;20048;-75
2022/06/14 01:11:55;;;;;;;12.52;4.30;;;13.70;99.90;;;;;;5039205;28;20363;-77
2022/06/14 01:14:26;;;;;;;9.45;4.50;;;13.70;99.90;;;;;;5022849;28;20050;-77
2022/06/14 01:16:52;;;;;;;10.70;4.07;;;13.70;99.90;;;;;;5026487;28;20116;-76
2022/06/14 01:19:24;;;;;;;9.77;4.40;;;13.60;99.90;;;;;;5032693;28;20402;-77
2022/06/14 01:22:02;;;;;;;7.93;4.55;;;13.60;99.90;;;;;;5032928;28;20055;-76
2022/06/14 01:24:30;;;;;;;10.40;4.32;;;13.60;99.90;;;;;;5032353;28;20025;-76
2022/06/14 01:26:57;;;;;;;6.03;3.88;;;13.50;99.90;;;;;;5032254;28;20371;-77
2022/06/14 01:29:24;;;;;;;9.18;4.15;;;13.50;99.90;;;;;;5032659;28;20581;-76
2022/06/14 01:31:53;;;;;;;11.57;4.20;;;13.50;99.90;;;;;;5032147;28;20042;-76
2022/06/14 01:34:20;;;;;;;8.07;3.97;;;13.40;99.90;;;;;;5032030;28;20064;-76
2022/06/14 01:36:46;;;;;;;6.65;4.07;;;13.40;99.90;;;;;;5031936;28;20022;-74
2022/06/14 01:39:16;;;;;;;11.85;4.78;;;13.40;99.90;;;;;;5032532;28;20025;-76
2022/06/14 01:41:54;;;;;;;6.22;3.85;;;13.40;99.90;;;;;;5032355;28;20494;-74
2022/06/14 01:44:44;;;;;;;7.13;4.13;;;13.40;99.90;;;;;;5032501;28;20060;-76
2022/06/14 01:47:16;;;;;;;7.50;4.47;;;13.40;99.90;;;;;;5031765;28;20474;-76
2022/06/14 01:52:59;;;;;;;8.32;4.10;;;13.30;99.90;;;;;;5029450;28;20083;-76
2022/06/14 01:55:45;;;;;;;5.20;3.67;;;13.30;99.90;;;;;;5031905;28;20360;-72
2022/06/14 01:58:16;;;;;;;6.30;3.78;;;13.20;99.90;;;;;;5031635;28;20486;-75
2022/06/14 02:01:09;;;;;;;8.15;4.47;;;13.20;99.90;;;;;;5018781;28;20076;-76
2022/06/14 02:06:53;;;;;;;9.07;4.45;;;13.10;99.90;;;;;;5032211;28;20040;-76
2022/06/14 02:09:27;;;;;;;6.60;4.03;;;13.10;99.90;;;;;;5032078;28;20037;-76
2022/06/14 02:11:56;;;;;;;7.60;3.67;;;13.00;99.90;;;;;;5030791;28;20029;-76
2022/06/14 02:14:29;;;;;;;7.38;3.72;;;12.90;99.90;;;;;;5030455;28;20053;-76
2022/06/14 02:17:01;;;;;;;5.43;3.72;;;12.90;99.90;;;;;;5030686;28;20041;-74
2022/06/14 02:19:37;;;;;;;8.05;3.85;;;12.90;99.90;;;;;;5030450;28;20029;-75
2022/06/14 02:22:29;;;;;;;5.75;3.78;;;12.80;99.90;;;;;;5030083;28;20104;-75
2022/06/14 02:25:09;;;;;;;9.63;3.85;;;12.80;99.90;;;;;;5021194;28;20124;-75
2022/06/14 02:27:53;;;;;;;7.47;4.57;;;12.80;99.90;;;;;;5031182;28;20034;-75
2022/06/14 02:30:27;;;;;;;8.25;4.95;;;12.80;99.90;;;;;;5030268;28;20324;-74
2022/06/14 02:33:09;;;;;;;10.10;4.60;;;12.80;99.90;;;;;;5030283;28;20390;-75
2022/06/14 02:35:47;;;;;;;7.78;3.78;;;12.80;99.90;;;;;;5024260;28;20083;-75
2022/06/14 02:38:15;;;;;;;15.95;4.53;;;12.70;99.90;;;;;;5030678;28;20037;-75
2022/06/14 02:41:26;;;;;;;9.05;4.70;;;12.70;99.90;;;;;;5029312;28;20045;-74
2022/06/14 02:44:09;;;;;;;11.93;4.65;;;12.70;99.90;;;;;;5025027;28;20041;-75
2022/06/14 02:46:52;;;;;;;10.52;4.47;;;12.70;99.90;;;;;;5028715;28;20035;-75
2022/06/14 02:49:30;;;;;;;8.98;4.80;;;12.60;99.90;;;;;;5030255;28;20025;-75
2022/06/14 02:52:01;;;;;;;10.70;4.82;;;12.70;99.90;;;;;;5021844;28;20029;-75
2022/06/14 02:54:30;;;;;;;10.63;4.43;;;12.60;99.90;;;;;;5029599;28;20824;-76
2022/06/14 02:57:04;;;;;;;8.93;5.18;;;12.60;99.90;;;;;;5028977;28;20025;-76
2022/06/14 02:59:39;;;;;;;7.85;4.70;;;12.60;99.90;;;;;;5028186;28;20017;-76
2022/06/14 03:02:22;;;;;;;7.65;4.43;;;12.60;99.90;;;;;;5028775;28;20037;-75
2022/06/14 03:05:04;;;;;;;9.55;4.60;;;12.60;99.90;;;;;;5031233;28;20037;-73
2022/06/14 03:07:39;;;;;;;8.38;4.63;;;12.50;99.90;;;;;;5041877;28;20037;-73
2022/06/14 03:10:06;;;;;;;8.30;4.22;;;12.50;99.90;;;;;;5029065;28;20092;-78
2022/06/14 03:12:46;;;;;;;7.15;4.13;;;12.50;99.90;;;;;;5040935;28;20025;-77
2022/06/14 03:15:39;;;;;;;9.07;4.72;;;12.50;99.90;;;;;;5031128;28;20045;-78
2022/06/14 03:18:18;;;;;;;7.93;4.63;;;12.50;99.90;;;;;;5025539;28;20378;-77
2022/06/14 03:21:11;;;;;;;13.27;5.00;;;12.40;99.90;;;;;;5029953;28;20360;-76
2022/06/14 03:23:59;;;;;;;8.43;4.75;;;12.40;99.90;;;;;;5030993;28;20033;-76
2022/06/14 03:26:55;;;;;;;8.80;4.90;;;12.40;99.90;;;;;;5028199;28;20028;-74
2022/06/14 03:29:49;;;;;;;11.00;5.10;;;12.40;99.90;;;;;;5021316;28;20056;-74
2022/06/14 03:33:02;;;;;;;6.55;4.50;;;12.40;99.90;;;;;;5030409;28;20040;-75
2022/06/14 03:35:33;;;;;;;7.88;5.03;;;12.40;99.90;;;;;;5020996;28;20053;-75
2022/06/14 03:38:08;;;;;;;8.57;4.60;;;12.30;99.90;;;;;;5030101;28;20352;-76
2022/06/14 03:40:34;;;;;;;8.90;4.75;;;12.30;99.90;;;;;;5030836;28;20034;-75
2022/06/14 03:43:02;;;;;;;9.30;5.18;;;12.30;99.90;;;;;;5029821;28;20040;-73
2022/06/14 03:45:42;;;;;;;7.05;4.38;;;12.30;99.90;;;;;;5030696;28;20073;-75
2022/06/14 03:48:09;;;;;;;6.88;4.80;;;12.30;99.90;;;;;;5029859;28;20172;-75
2022/06/14 03:51:02;;;;;;;10.82;4.90;;;12.30;99.90;;;;;;5030827;28;20025;-75
2022/06/14 03:53:44;;;;;;;8.00;4.70;;;12.40;99.90;;;;;;5028616;28;20025;-76
2022/06/14 03:57:06;;;;;;;12.63;4.93;;;12.30;99.90;;;;;;5031633;28;20030;-77
2022/06/14 03:59:51;;;;;;;8.82;4.43;;;12.40;99.90;;;;;;5003594;28;20037;-76
2022/06/14 04:02:53;;;;;;;8.27;5.10;;;12.40;99.90;;;;;;5008299;28;20034;-76
2022/06/14 04:05:32;;;;;;;7.57;4.53;;;12.50;99.90;;;;;;5017927;28;20811;-77
2022/06/14 04:08:21;;;;;;;9.45;5.00;;;12.50;99.90;;;;;;5026587;28;20149;-76
2022/06/14 04:11:18;;;;;;;13.27;6.40;;;12.60;99.90;;;;;;5024554;28;20029;-74
2022/06/14 04:13:52;;;;;;;8.05;4.57;;;12.60;99.90;;;;;;5032481;28;20096;-77
2022/06/14 04:16:39;;;;;;;10.45;5.63;;;12.60;99.90;;;;;;5030160;28;20045;-75
2022/06/14 04:19:23;;;;;;;7.95;5.35;;;12.60;99.90;;;;;;5028560;28;20496;-75
2022/06/14 04:22:15;;;;;;;12.10;5.55;;;12.70;99.90;;;;;;5030193;28;20032;-73
2022/06/14 04:24:59;;;;;;;13.35;5.82;;;12.70;99.90;;;;;;5022603;28;20033;-75
2022/06/14 04:27:37;;;;;;;10.50;5.20;;;12.80;99.90;;;;;;5029953;28;20026;-76
2022/06/14 04:30:15;;;;;;;12.70;5.60;;;12.90;99.90;;;;;;5029087;28;20510;-75
2022/06/14 04:32:57;;;;;;;10.32;5.53;;;12.90;99.90;;;;;;5030032;28;20463;-76
2022/06/14 04:35:28;;;;;;;10.07;5.60;;;12.90;99.90;;;;;;5029047;28;20042;-77
2022/06/14 04:38:00;;;;;;;10.20;6.18;;;13.00;99.90;;;;;;5030144;28;20512;-76
2022/06/14 04:40:42;;;;;;;8.55;5.55;;;13.10;99.90;;;;;;5026445;28;20026;-78
2022/06/14 04:43:12;;;;;;;9.20;5.28;;;13.20;99.90;;;;;;5030801;28;20449;-76
2022/06/14 04:45:47;;;;;;;;;;;13.30;99.90;;;;;;5034278;28;20388;-76
2022/06/14 04:48:18;;;;;;;11.63;6.68;;;13.30;99.90;;;;;;5031937;28;19909;-75
2022/06/14 04:50:49;;;;;;;8.45;5.38;;;13.40;99.90;;;;;;5033452;28;20033;-77
2022/06/14 04:53:21;;;;;;;10.65;6.07;;;13.50;99.90;;;;;;5032829;28;20063;-75
2022/06/14 04:56:13;;;;;;;12.77;6.05;;;13.60;99.90;;;;;;5033471;28;20067;-77
2022/06/14 04:58:45;;;;;;;9.00;5.80;;;13.70;99.90;;;;;;5025691;28;20041;-75
2022/06/14 05:01:18;;;;;;;9.40;5.25;;;13.80;99.90;;;;;;5041025;28;20573;-75
2022/06/14 05:04:10;;;;;;;8.07;5.15;;;13.90;99.90;;;;;;5033318;28;20029;-76
2022/06/14 05:06:44;;;;;;;10.45;5.50;;;14.00;99.90;;;;;;5033196;28;20497;-77
2022/06/14 05:09:13;;;;;;;9.13;5.82;;;14.10;99.90;;;;;;5032667;28;20845;-77
2022/06/14 05:11:45;;;;;;;9.00;5.90;;;14.20;99.90;;;;;;5034186;28;20045;-75
2022/06/14 05:14:20;;;;;;;8.05;5.15;;;14.30;99.90;;;;;;5034424;28;20481;-75
2022/06/14 05:17:08;;;;;;;14.57;6.22;;;14.40;99.90;;;;;;5032826;28;20044;-77
2022/06/14 05:19:45;;;;;;;9.70;5.47;;;14.50;99.90;;;;;;5033125;28;20103;-76
2022/06/14 05:22:38;;;;;;;11.57;6.30;;;14.60;99.90;;;;;;5031156;28;20029;-77
2022/06/14 05:25:07;;;;;;;9.57;5.40;;;14.70;99.90;;;;;;5026508;28;20060;-78
2022/06/14 05:28:00;;;;;;;9.63;6.25;;;14.80;99.90;;;;;;5032248;28;20029;-77
2022/06/14 05:30:58;;;;;;;11.20;5.95;;;14.90;99.90;;;;;;5032056;28;20335;-77
2022/06/14 05:33:31;;;;;;;10.77;5.75;;;15.00;99.90;;;;;;5029824;28;20082;-75
2022/06/14 05:36:27;;;;;;;7.78;5.22;;;15.10;99.90;;;;;;5028970;28;20049;-77
2022/06/14 05:39:06;;;;;;;14.15;5.93;;;15.20;99.90;;;;;;5031068;28;20046;-74
2022/06/14 05:41:41;;;;;;;12.73;6.00;;;15.40;99.90;;;;;;5032935;28;20042;-76
2022/06/14 05:44:29;;;;;;;10.32;5.43;;;15.40;99.90;;;;;;5031030;28;20032;-76
2022/06/14 05:46:58;;;;;;;11.48;5.70;;;15.50;99.90;;;;;;5031458;28;20037;-72
2022/06/14 05:49:29;;;;;;;10.48;5.00;;;15.60;99.90;;;;;;5031811;28;20033;-74
2022/06/14 05:52:08;;;;;;;13.10;6.60;;;15.70;99.90;;;;;;5031706;28;20026;-73
2022/06/14 05:54:40;;;;;;;10.38;5.97;;;15.80;99.90;;;;;;5031346;28;20038;-77
2022/06/14 05:57:26;;;;;;;10.60;5.97;;;16.00;99.90;;;;;;5027761;28;20379;-78
2022/06/14 05:59:58;;;;;;;9.05;5.32;;;16.10;99.90;;;;;;5029477;28;20034;-75
2022/06/14 06:02:27;;;;;;;11.52;5.10;;;16.10;99.90;;;;;;5028155;28;20048;-75
2022/06/14 06:05:08;;;;;;;10.83;5.97;;;16.20;99.90;;;;;;5031640;28;20029;-72
2022/06/14 06:07:38;;;;;;;9.35;6.13;;;16.30;99.90;;;;;;5031057;28;20477;-74
2022/06/14 06:10:18;;;;;;;13.13;5.85;;;16.40;99.90;;;;;;5031220;28;20029;-79
2022/06/14 06:12:59;;;;;;;12.90;6.35;;;16.50;99.90;;;;;;5031805;28;20041;-73
2022/06/14 06:15:33;;;;;;;22.95;6.45;;;16.60;99.90;;;;;;5021521;28;20037;-76
2022/06/14 06:18:06;;;;;;;13.93;5.80;;;16.70;99.90;;;;;;5031529;28;20039;-75
2022/06/14 06:20:50;;;;;;;14.52;6.30;;;16.70;99.90;;;;;;5031103;28;20026;-78
2022/06/14 06:23:20;;;;;;;14.63;6.55;;;16.80;99.90;;;;;;5031079;28;20490;-70
2022/06/14 06:25:48;;;;;;;;;;;16.80;99.90;;;;;;5019182;28;20036;-77
2022/06/14 06:28:31;;;;;;;16.55;5.75;;;16.80;99.90;;;;;;5030973;28;19915;-79
2022/06/14 06:31:05;;;;;;;15.30;6.50;;;16.90;99.90;;;;;;5023589;28;20057;-70
2022/06/14 06:33:35;;;;;;;16.70;6.10;;;16.90;99.90;;;;;;5031460;28;20029;-70
2022/06/14 06:36:12;;;;;;;12.35;5.80;;;17.00;99.90;;;;;;5030798;28;20033;-70
2022/06/14 06:39:12;;;;;;;14.18;6.18;;;17.10;99.90;;;;;;5031392;28;20043;-72
2022/06/14 06:41:55;;;;;;;15.13;6.40;;;17.20;99.90;;;;;;5031314;28;20121;-76
2022/06/14 06:45:02;;;;;;;16.33;6.47;;;17.30;99.90;;;;;;5024695;28;20049;-75
2022/06/14 06:47:31;;;;;;;14.23;6.47;;;17.40;99.90;;;;;;5018624;28;20480;-78
2022/06/14 06:50:04;;;;;;;13.68;6.13;;;17.50;99.90;;;;;;5031719;28;20036;-75
2022/06/14 06:52:49;;;;;;;12.23;5.93;;;17.60;99.90;;;;;;5042876;28;20445;-77
2022/06/14 06:55:29;;;;;;;14.38;5.80;;;17.60;99.90;;;;;;5027355;28;20459;-78
2022/06/14 06:57:55;;;;;;;;;;;17.80;99.90;;;;;;5024560;28;20037;-74
2022/06/14 07:00:23;;;;;;;10.57;5.32;;;17.90;99.90;;;;;;5024158;28;19909;-75
2022/06/14 07:02:57;;;;;;;13.57;5.55;;;18.10;99.90;;;;;;5029970;28;20025;-74
2022/06/14 07:05:23;;;;;;;16.05;5.57;;;18.10;99.90;;;;;;5029316;28;20051;-75
2022/06/14 07:08:16;;;;;;;15.68;5.85;;;18.20;99.90;;;;;;5030622;28;20030;-75
2022/06/14 07:10:50;;;;;;;8.43;4.90;;;18.30;99.90;;;;;;5024294;28;20044;-75
2022/06/14 07:13:28;;;;;;;12.75;5.22;;;18.40;99.90;;;;;;5029016;28;20597;-75
2022/06/14 07:16:05;;;;;;;13.55;6.15;;;18.50;99.90;;;;;;5031573;28;20037;-74
2022/06/14 07:18:45;;;;;;;9.05;4.45;;;18.60;99.90;;;;;;5030176;28;20052;-74
2022/06/14 07:21:19;;;;;;;12.60;5.00;;;18.70;99.90;;;;;;5028897;28;20399;-75
2022/06/14 07:23:48;;;;;;;11.35;4.70;;;18.80;99.90;;;;;;5030358;28;20486;-75
2022/06/14 07:26:25;;;;;;;10.40;4.53;;;19.00;99.60;;;;;;5027103;28;20078;-74
2022/06/14 07:29:14;;;;;;;11.90;5.10;;;19.10;98.90;;;;;;5030114;28;20022;-74
2022/06/14 07:32:03;;;;;;;10.35;5.05;;;19.20;99.10;;;;;;5021371;28;20036;-75
2022/06/14 07:34:32;;;;;;;11.65;5.43;;;19.40;98.40;;;;;;5029706;28;20033;-75
2022/06/14 07:37:06;;;;;;;11.13;4.70;;;19.50;98.40;;;;;;5030196;28;20132;-75
2022/06/14 07:40:11;;;;;;;11.77;5.50;;;19.60;97.80;;;;;;5028306;28;20456;-74
2022/06/14 07:42:41;;;;;;;9.60;4.90;;;19.60;97.70;;;;;;5008855;28;20045;-77
2022/06/14 07:45:21;;;;;;;11.73;5.22;;;19.60;97.60;;;;;;5029483;28;20132;-75
2022/06/14 07:48:01;;;;;;;9.85;5.55;;;19.70;97.60;;;;;;5030066;28;20056;-81
2022/06/14 07:50:33;;;;;;;;;;;19.90;97.50;;;;;;5030514;28;20034;-77
2022/06/14 07:53:21;;;;;;;7.80;4.85;;;20.00;97.10;;;;;;5028926;28;20355;-71
2022/06/14 07:55:54;;;;;;;15.07;5.70;;;20.10;96.80;;;;;;5029978;28;20033;-71
2022/06/14 07:58:30;;;;;;;12.30;5.88;;;20.10;96.20;;;;;;5027672;28;20032;-70
2022/06/14 08:01:09;;;;;;;10.30;5.90;;;20.30;95.60;;;;;;5028376;28;20071;-70
2022/06/14 08:03:56;;;;;;;16.73;5.45;;;20.20;94.80;;;;;;5028687;28;20022;-70
2022/06/14 08:06:31;;;;;;;11.00;5.63;;;20.20;94.80;;;;;;5029472;28;20080;-70
2022/06/14 08:09:20;;;;;;;12.27;5.35;;;20.30;95.30;;;;;;5028706;28;20061;-69
2022/06/14 08:11:53;;;;;;;8.57;4.95;;;20.40;94.70;;;;;;5027771;28;20026;-70
2022/06/14 08:14:37;;;;;;;13.50;5.50;;;20.50;94.20;;;;;;5031714;28;20062;-69
2022/06/14 08:17:05;;;;;;;10.43;4.65;;;20.60;93.60;;;;;;5030985;28;20109;-69
2022/06/14 08:19:51;;;;;;;12.70;5.20;;;20.60;93.30;;;;;;5033425;28;20496;-71
2022/06/14 08:22:25;;;;;;;9.77;4.72;;;20.70;93.00;;;;;;5031769;28;20113;-69
2022/06/14 08:24:58;;;;;;;13.25;5.22;;;20.70;92.50;;;;;;5032827;28;20108;-70
2022/06/14 08:27:30;;;;;;;9.60;5.22;;;21.00;92.50;;;;;;5032702;28;20033;-70
2022/06/14 08:30:10;;;;;;;13.18;4.88;;;21.10;91.80;;;;;;5032939;28;20057;-70
2022/06/14 08:32:48;;;;;;;12.32;4.68;;;21.20;91.50;;;;;;5032192;28;20040;-70
2022/06/14 08:35:43;;;;;;;6.88;4.00;;;21.30;91.20;;;;;;5031680;28;20777;-70
2022/06/14 08:38:38;;;;;;;10.98;4.13;;;21.50;91.50;;;;;;5032123;28;20021;-69
2022/06/14 08:41:39;;;;;;;6.78;3.90;;;21.60;90.00;;;;;;5030578;28;20041;-70
2022/06/14 08:44:16;;;;;;;;;;;21.70;88.10;;;;;;5030552;28;20042;-70
2022/06/14 08:46:55;;;;;;;10.27;4.22;;;21.80;86.60;;;;;;5032883;28;19909;-70
2022/06/14 08:49:23;;;;;;;9.95;3.90;;;21.90;87.50;;;;;;5031391;28;20080;-69
2022/06/14 08:52:19;;;;;;;11.32;4.55;;;21.90;85.20;;;;;;5033019;28;20454;-70
2022/06/14 08:55:06;;;;;;;9.30;4.32;;;22.00;85.40;;;;;;5031591;28;20406;-70
2022/06/14 08:58:04;;;;;;;10.85;4.65;;;22.10;84.50;;;;;;5033066;28;20162;-70
2022/06/14 09:00:32;;;;;;;7.43;3.60;;;22.20;84.00;;;;;;5036301;28;20040;-70
2022/06/14 09:03:13;;;;;;;11.25;4.45;;;22.30;84.10;;;;;;5031459;28;20021;-71
2022/06/14 09:06:18;;;;;;;14.52;4.30;;;22.50;83.90;;;;;;5031877;28;20462;-70
2022/06/14 09:09:21;;;;;;;5.82;3.47;;;22.60;82.30;;;;;;5032877;28;20048;-72
2022/06/14 09:11:53;;;;;;;9.35;3.95;;;22.80;81.20;;;;;;5033401;28;20025;-72
2022/06/14 09:14:37;;;;;;;8.38;4.70;;;23.00;81.00;;;;;;5032233;28;20070;-73
2022/06/14 09:17:23;;;;;;;8.15;3.90;;;23.10;79.60;;;;;;5032586;28;20113;-72
2022/06/14 09:20:10;;;;;;;10.25;4.15;;;23.10;79.50;;;;;;5042504;28;20048;-72
2022/06/14 09:22:51;;;;;;;7.57;4.03;;;23.20;79.00;;;;;;5040699;28;20029;-72
2022/06/14 09:25:28;;;;;;;10.25;4.25;;;23.30;78.00;;;;;;5043893;28;20057;-74
2022/06/14 09:27:54;;;;;;;9.15;3.90;;;23.40;77.20;;;;;;5033201;28;20030;-73
2022/06/14 09:30:50;;;;;;;5.65;3.42;;;23.50;77.30;;;;;;5033413;28;20037;-72
2022/06/14 09:33:43;;;;;;;8.48;3.53;;;23.50;78.00;;;;;;5026527;28;20666;-70
2022/06/14 09:36:22;;;;;;;9.02;3.10;;;23.40;73.00;;;;;;5031594;28;20047;-73
2022/06/14 09:39:00;;;;;;;7.75;2.63;;;23.40;69.10;;;;;;5031315;28;20033;-71
2022/06/14 09:41:57;;;;;;;6.40;2.65;;;23.40;69.10;;;;;;5032559;28;20026;-72
2022/06/14 09:44:50;;;;;;;7.45;3.05;;;23.50;68.50;;;;;;5031792;28;20106;-74
2022/06/14 09:47:35;;;;;;;7.05;3.58;;;23.70;67.40;;;;;;5031299;28;20615;-72
2022/06/14 09:50:12;;;;;;;9.43;3.53;;;23.80;67.20;;;;;;5030928;28;20037;-72
2022/06/14 09:52:59;;;;;;;8.00;3.78;;;23.90;67.60;;;;;;5030782;28;20364;-71
2022/06/14 09:55:52;;;;;;;9.15;2.78;;;24.00;65.80;;;;;;5032143;28;20033;-71
2022/06/14 09:58:52;;;;;;;6.53;3.30;;;24.10;64.20;;;;;;5025608;28;20045;-71
2022/06/14 10:01:45;;;;;;;5.72;3.42;;;24.10;65.30;;;;;;5037071;28;20718;-71
2022/06/14 10:04:17;;;;;;;6.43;3.65;;;24.20;64.80;;;;;;5022298;28;20036;-71
2022/06/14 10:06:48;;;;;;;8.90;3.50;;;24.30;66.50;;;;;;5031961;28;20467;-72
2022/06/14 10:09:52;;;;;;;6.90;3.42;;;24.30;67.10;;;;;;5031035;28;20486;-71
2022/06/14 10:12:29;;;;;;;7.95;3.53;;;24.40;66.00;;;;;;5022944;28;20628;-71
2022/06/14 10:14:59;;;;;;;15.07;3.70;;;24.50;66.80;;;;;;5030870;28;20092;-72
2022/06/14 10:17:50;;;;;;;7.45;3.70;;;24.70;66.70;;;;;;5032043;28;20150;-72
2022/06/14 10:20:38;;;;;;;8.40;3.75;;;24.80;65.80;;;;;;5029084;28;20025;-72
2022/06/14 10:23:38;;;;;;;6.07;3.03;;;24.90;66.50;;;;;;5028310;28;20028;-72
2022/06/14 10:29:32;;;;;;;6.93;3.33;;;25.00;66.00;;;;;;5028837;28;20044;-73
2022/06/14 10:32:16;;;;;;;4.68;3.10;;;25.20;65.70;;;;;;5029172;28;20040;-71
2022/06/14 10:34:49;;;;;;;14.07;4.00;;;25.10;65.00;;;;;;5031378;28;20037;-74
2022/06/14 10:37:20;;;;;;;7.60;3.60;;;25.00;64.30;;;;;;5029706;28;20037;-72
2022/06/14 10:40:17;;;;;;;9.68;4.18;;;24.90;65.40;;;;;;5030268;28;20705;-72
2022/06/14 10:42:57;;;;;;;7.35;3.45;;;24.60;66.10;;;;;;5033472;28;20035;-72
2022/06/14 10:45:47;;;;;;;9.43;3.58;;;24.60;66.90;;;;;;5030463;28;20047;-72
2022/06/14 10:48:31;;;;;;;7.65;3.85;;;24.60;65.80;;;;;;5027676;28;20045;-73
2022/06/14 10:51:08;;;;;;;6.25;3.53;;;24.60;66.30;;;;;;5023673;28;20113;-73
2022/06/14 10:53:46;;;;;;;5.25;3.28;;;24.80;66.10;;;;;;5031793;28;20056;-72
2022/06/14 10:56:48;;;;;;;6.50;3.28;;;25.00;65.00;;;;;;5043911;28;20501;-71
2022/06/14 10:59:29;;;;;;;6.22;3.70;;;25.10;66.10;;;;;;5032456;28;20068;-71
2022/06/14 11:02:27;;;;;;;7.43;3.63;;;25.30;65.20;;;;;;5037160;28;20076;-71
2022/06/14 11:05:29;;;;;;;6.47;3.38;;;25.50;63.70;;;;;;5015836;28;20403;-72
2022/06/14 11:08:21;;;;;;;6.25;3.20;;;25.70;63.40;;;;;;5029797;28;21490;-72
2022/06/14 11:11:12;;;;;;;7.47;3.40;;;25.60;63.30;;;;;;5028552;28;20028;-73
2022/06/14 11:14:06;;;;;;;10.38;3.50;;;25.80;62.90;;;;;;5030261;28;20049;-73
2022/06/14 11:16:47;;;;;;;5.40;2.80;;;25.90;62.40;;;;;;5030726;28;20049;-73
2022/06/14 11:22:35;;;;;;;6.00;3.20;;;26.00;62.10;;;;;;5019723;28;20033;-72
2022/06/14 11:25:34;;;;;;;11.98;3.38;;;26.30;62.40;;;;;;5029886;28;20033;-71
2022/06/14 11:28:45;;;;;;;10.95;3.60;;;26.50;60.90;;;;;;5029978;28;20402;-72
2022/06/14 11:31:43;;;;;;;8.15;3.53;;;26.60;60.30;;;;;;5033581;28;20073;-72
2022/06/14 11:34:40;;;;;;;5.97;2.80;;;26.60;59.00;;;;;;5029096;28;20034;-71
2022/06/14 11:37:23;;;;;;;5.97;2.83;;;26.40;58.20;;;;;;5029914;28;20053;-72
2022/06/14 11:40:02;;;;;;;5.32;2.95;;;26.50;57.80;;;;;;5030422;28;20374;-72
2022/06/14 11:42:27;;;;;;;4.45;2.97;;;26.50;58.10;;;;;;5029615;28;20049;-72
2022/06/14 11:45:27;;;;;;;7.72;3.40;;;26.50;57.90;;;;;;5024452;28;20454;-72
2022/06/14 11:48:11;;;;;;;5.97;2.70;;;26.60;58.00;;;;;;5023272;28;20037;-78
2022/06/14 11:50:47;;;;;;;7.65;2.90;;;26.70;57.20;;;;;;5024697;28;20390;-72
2022/06/14 11:53:35;;;;;;;8.45;3.35;;;26.80;57.90;;;;;;5034248;28;20120;-72
2022/06/14 11:56:24;;;;;;;7.22;2.80;;;26.90;57.60;;;;;;5031296;28;20040;-71
2022/06/14 11:59:05;;;;;;;7.50;3.17;;;26.90;57.60;;;;;;5032959;28;20048;-71
2022/06/14 12:01:53;;;;;;;5.65;2.72;;;26.90;58.30;;;;;;5040205;28;20026;-72
2022/06/14 12:04:27;;;;;;;7.43;2.88;;;26.80;59.40;;;;;;5033078;28;20627;-72
2022/06/14 12:06:55;;;;;;;5.72;3.30;;;26.80;57.10;;;;;;5033598;28;20052;-73
2022/06/14 12:09:31;;;;;;;5.47;2.78;;;26.90;57.10;;;;;;5033873;28;20083;-72
2022/06/14 12:12:00;;;;;;;9.50;3.30;;;26.80;57.00;;;;;;5031046;28;20091;-73
2022/06/14 12:15:12;;;;;;;7.88;3.22;;;26.90;55.60;;;;;;5027940;28;20098;-71
2022/06/14 12:17:45;;;;;;;7.30;2.92;;;27.10;56.30;;;;;;5032372;28;20038;-72
2022/06/14 12:20:12;;;;;;;8.07;2.72;;;27.10;56.00;;;;;;5036015;28;20041;-72
2022/06/14 12:23:02;;;;;;;3.63;2.50;;;26.90;55.90;;;;;;5039935;28;20434;-72
2022/06/14 12:28:52;;;;;;;7.13;2.70;;;27.00;55.50;;;;;;5030414;28;20279;-74
2022/06/14 12:31:20;;;;;;;5.13;2.55;;;27.30;55.20;;;;;;5034927;28;20249;-73
2022/06/14 12:34:01;;;;;;;6.35;3.13;;;27.60;56.10;;;;;;5040840;28;20029;-72
2022/06/14 12:36:34;;;;;;;6.45;2.75;;;27.60;53.90;;;;;;5031519;28;20035;-74
2022/06/14 12:39:07;;;;;;;4.55;2.58;;;27.40;54.00;;;;;;5041438;28;20036;-73
2022/06/14 12:42:00;;;;;;;5.57;2.67;;;27.40;55.80;;;;;;5044033;28;20030;-74
2022/06/14 12:45:02;;;;;;;6.20;2.92;;;27.50;54.90;;;;;;5031008;28;20382;-74
2022/06/14 12:47:42;;;;;;;5.18;2.55;;;27.90;71.50;;;;;;5019033;28;20030;-75
2022/06/14 12:50:32;;;;;;;5.18;3.05;;;28.00;67.60;;;;;;5029197;28;20099;-73
2022/06/14 12:53:19;;;;;;;5.40;3.08;;;28.30;61.80;;;;;;5034337;28;20394;-85
2022/06/14 12:55:53;;;;;;;5.10;2.63;;;28.50;53.70;;;;;;5035532;28;20407;-82
2022/06/14 12:58:49;;;;;;;5.57;3.13;;;28.50;53.70;;;;;;5042681;28;20071;-83
2022/06/14 13:01:40;;;;;;;6.93;2.60;;;28.70;53.30;;;;;;5029902;28;20033;-82
2022/06/14 13:04:17;;;;;;;4.63;2.20;;;28.70;51.40;;;;;;5032163;28;20029;-80
2022/06/14 13:07:00;;;;;;;5.45;2.70;;;28.80;51.60;;;;;;5037391;28;20097;-80
2022/06/14 13:09:30;;;;;;;3.40;2.47;;;28.80;51.10;;;;;;5032785;28;20026;-86
2022/06/14 13:12:30;;;;;;;7.82;3.15;;;28.70;51.30;;;;;;5033008;28;20081;-80
2022/06/14 13:15:12;;;;;;;7.63;3.47;;;28.60;51.90;;;;;;5031405;28;20049;-82
2022/06/14 13:18:13;;;;;;;4.57;2.58;;;28.60;52.20;;;;;;5033298;28;20318;-80
2022/06/14 13:20:52;;;;;;;6.05;2.47;;;28.70;53.00;;;;;;4989553;28;20042;-80
2022/06/14 13:23:45;;;;;;;6.70;2.50;;;29.00;52.90;;;;;;5006105;28;20100;-80
2022/06/14 13:26:30;;;;;;;3.85;2.53;;;29.10;52.60;;;;;;5009541;28;20062;-81
2022/06/14 13:29:17;;;;;;;8.20;2.88;;;29.30;52.90;;;;;;5010378;28;20084;-80
2022/06/14 13:31:58;;;;;;;3.13;2.30;;;29.40;51.80;;;;;;4997071;28;20037;-80
2022/06/14 13:34:33;;;;;;;6.63;2.90;;;29.30;51.10;;;;;;5008079;28;20112;-80
2022/06/14 13:37:22;;;;;;;3.60;2.42;;;29.20;50.90;;;;;;5011739;28;20052;-85
2022/06/14 13:40:08;;;;;;;4.50;2.58;;;29.40;67.30;;;;;;5010613;28;20038;-81
2022/06/14 13:42:34;;;;;;;5.30;2.95;;;;;;;;;;5011293;28;20176;-82
2022/06/14 13:45:09;;;;;;;9.32;3.05;;;;;;;;;;5011825;28;20176;-83
2022/06/14 13:47:40;;;;;;;6.18;2.58;;;;;;;;;;5002285;28;20060;-82
2022/06/14 13:50:30;;;;;;;3.80;2.45;;;;;;;;;;4996706;28;20399;-81
2022/06/14 13:53:01;;;;;;;;;;;30.10;49.00;;;;;;4985178;28;20027;-82
2022/06/14 13:56:19;;;;;;;5.85;2.40;;;30.10;50.30;;;;;;4993897;28;19917;-83
2022/06/14 13:59:14;;;;;;;5.40;2.80;;;30.10;49.40;;;;;;4993213;28;20117;-85
2022/06/14 14:02:08;;;;;;;6.03;2.83;;;30.20;49.20;;;;;;5036334;28;20037;-82
2022/06/14 14:05:13;;;;;;;4.22;2.28;;;30.20;50.50;;;;;;5016442;28;20092;-83
2022/06/14 14:07:47;;;;;;;3.92;2.30;;;30.30;49.00;;;;;;5021727;28;20041;-81
2022/06/14 14:10:41;;;;;;;7.47;2.53;;;30.20;48.40;;;;;;5024234;28;20045;-85